sensor_id;sensor_type;location;lat;lon;timestamp;temperature;humidity
8226;DHT22;4154;48.810;9.012;2023-03-16T00:01:06;1.70;99.30
8226;DHT22;4154;48.810;9.012;2023-03-16T00:03:33;1.60;99.20
8226;DHT22;4154;48.810;9.012;2023-03-16T00:08:25;1.60;99.10
8226;DHT22;4154;48.810;9.012;2023-03-16T00:10:51;1.60;99.30
8226;DHT22;4154;48.810;9.012;2023-03-16T00:13:20;1.60;99.20
8226;DHT22;4154;48.810;9.012;2023-03-16T00:15:57;1.50;99.90
8226;DHT22;4154;48.810;9.012;2023-03-16T00:18:29;1.60;99.40
8226;DHT22;4154;48.810;9.012;2023-03-16T00:20:57;1.60;99.40
8226;DHT22;4154;48.810;9.012;2023-03-16T00:23:26;1.50;99.40
8226;DHT22;4154;48.810;9.012;2023-03-16T00:25:59;1.40;99.40
8226;DHT22;4154;48.810;9.012;2023-03-16T00:28:28;1.50;99.60
8226;DHT22;4154;48.810;9.012;2023-03-16T00:31:05;1.50;99.50
8226;DHT22;4154;48.810;9.012;2023-03-16T00:33:33;1.50;99.50
8226;DHT22;4154;48.810;9.012;2023-03-16T00:38:28;1.40;99.40
8226;DHT22;4154;48.810;9.012;2023-03-16T00:40:56;1.40;99.60
8226;DHT22;4154;48.810;9.012;2023-03-16T00:45:47;1.30;99.30
8226;DHT22;4154;48.810;9.012;2023-03-16T00:48:13;1.20;99.40
8226;DHT22;4154;48.810;9.012;2023-03-16T00:50:39;1.30;99.40
8226;DHT22;4154;48.810;9.012;2023-03-16T00:53:04;1.30;99.40
8226;DHT22;4154;48.810;9.012;2023-03-16T00:55:31;1.30;99.40
8226;DHT22;4154;48.810;9.012;2023-03-16T01:00:23;1.30;99.20
8226;DHT22;4154;48.810;9.012;2023-03-16T01:02:52;1.30;99.30
8226;DHT22;4154;48.810;9.012;2023-03-16T01:05:18;1.30;99.30
8226;DHT22;4154;48.810;9.012;2023-03-16T01:07:44;1.30;99.30
8226;DHT22;4154;48.810;9.012;2023-03-16T01:10:10;1.30;99.20
8226;DHT22;4154;48.810;9.012;2023-03-16T01:15:03;1.30;99.00
8226;DHT22;4154;48.810;9.012;2023-03-16T01:22:26;1.30;99.00
8226;DHT22;4154;48.810;9.012;2023-03-16T01:24:52;1.30;99.10
8226;DHT22;4154;48.810;9.012;2023-03-16T01:27:18;1.30;99.20
8226;DHT22;4154;48.810;9.012;2023-03-16T01:32:10;1.30;98.90
8226;DHT22;4154;48.810;9.012;2023-03-16T01:34:36;1.30;99.10
8226;DHT22;4154;48.810;9.012;2023-03-16T01:37:02;1.70;99.90
8226;DHT22;4154;48.810;9.012;2023-03-16T01:39:28;1.30;98.90
8226;DHT22;4154;48.810;9.012;2023-03-16T01:41:54;1.30;98.90
8226;DHT22;4154;48.810;9.012;2023-03-16T01:44:22;1.20;98.80
8226;DHT22;4154;48.810;9.012;2023-03-16T01:46:55;1.20;99.90
8226;DHT22;4154;48.810;9.012;2023-03-16T01:49:26;1.20;98.80
8226;DHT22;4154;48.810;9.012;2023-03-16T01:52:10;1.20;98.80
8226;DHT22;4154;48.810;9.012;2023-03-16T01:54:46;1.20;98.70
8226;DHT22;4154;48.810;9.012;2023-03-16T01:57:20;1.10;98.80
8226;DHT22;4154;48.810;9.012;2023-03-16T01:59:54;1.10;98.70
8226;DHT22;4154;48.810;9.012;2023-03-16T02:02:24;1.10;98.70
8226;DHT22;4154;48.810;9.012;2023-03-16T02:07:27;1.10;98.40
8226;DHT22;4154;48.810;9.012;2023-03-16T02:09:58;1.10;98.60
8226;DHT22;4154;48.810;9.012;2023-03-16T02:12:27;1.00;98.50
8226;DHT22;4154;48.810;9.012;2023-03-16T02:17:26;0.90;98.50
8226;DHT22;4154;48.810;9.012;2023-03-16T02:20:18;0.90;98.80
8226;DHT22;4154;48.810;9.012;2023-03-16T02:22:59;1.00;98.70
8226;DHT22;4154;48.810;9.012;2023-03-16T02:25:48;1.00;98.60
8226;DHT22;4154;48.810;9.012;2023-03-16T02:28:35;0.90;98.50
8226;DHT22;4154;48.810;9.012;2023-03-16T02:31:09;0.90;98.50
8226;DHT22;4154;48.810;9.012;2023-03-16T02:33:37;0.80;98.60
8226;DHT22;4154;48.810;9.012;2023-03-16T02:36:04;0.80;98.60
8226;DHT22;4154;48.810;9.012;2023-03-16T02:38:30;0.80;98.70
8226;DHT22;4154;48.810;9.012;2023-03-16T02:41:10;0.80;98.60
8226;DHT22;4154;48.810;9.012;2023-03-16T02:43:43;0.80;98.60
8226;DHT22;4154;48.810;9.012;2023-03-16T02:46:19;0.80;98.50
8226;DHT22;4154;48.810;9.012;2023-03-16T02:49:07;0.90;98.50
8226;DHT22;4154;48.810;9.012;2023-03-16T02:51:41;0.80;98.50
8226;DHT22;4154;48.810;9.012;2023-03-16T02:54:08;0.80;98.50
8226;DHT22;4154;48.810;9.012;2023-03-16T02:56:33;0.80;98.50
8226;DHT22;4154;48.810;9.012;2023-03-16T02:58:59;0.80;98.40
8226;DHT22;4154;48.810;9.012;2023-03-16T03:01:25;0.80;98.50
8226;DHT22;4154;48.810;9.012;2023-03-16T03:03:51;0.80;98.40
8226;DHT22;4154;48.810;9.012;2023-03-16T03:06:16;0.70;98.30
8226;DHT22;4154;48.810;9.012;2023-03-16T03:08:42;0.80;98.50
8226;DHT22;4154;48.810;9.012;2023-03-16T03:16:03;0.70;98.60
8226;DHT22;4154;48.810;9.012;2023-03-16T03:18:29;0.70;98.70
8226;DHT22;4154;48.810;9.012;2023-03-16T03:23:20;0.50;98.50
8226;DHT22;4154;48.810;9.012;2023-03-16T03:25:46;0.60;98.80
8226;DHT22;4154;48.810;9.012;2023-03-16T03:30:39;0.60;98.70
8226;DHT22;4154;48.810;9.012;2023-03-16T03:35:30;0.60;98.60
8226;DHT22;4154;48.810;9.012;2023-03-16T03:37:56;0.70;98.80
8226;DHT22;4154;48.810;9.012;2023-03-16T03:40:22;0.60;98.60
8226;DHT22;4154;48.810;9.012;2023-03-16T03:47:41;0.60;98.50
8226;DHT22;4154;48.810;9.012;2023-03-16T03:50:09;0.60;98.60
8226;DHT22;4154;48.810;9.012;2023-03-16T03:52:36;0.70;98.60
8226;DHT22;4154;48.810;9.012;2023-03-16T03:55:02;0.70;98.50
8226;DHT22;4154;48.810;9.012;2023-03-16T03:57:27;0.70;98.50
8226;DHT22;4154;48.810;9.012;2023-03-16T03:59:53;0.70;98.40
8226;DHT22;4154;48.810;9.012;2023-03-16T04:02:19;0.60;98.40
8226;DHT22;4154;48.810;9.012;2023-03-16T04:04:47;0.70;98.40
8226;DHT22;4154;48.810;9.012;2023-03-16T04:07:13;0.70;98.40
8226;DHT22;4154;48.810;9.012;2023-03-16T04:09:38;0.70;98.40
8226;DHT22;4154;48.810;9.012;2023-03-16T04:12:06;0.70;98.40
8226;DHT22;4154;48.810;9.012;2023-03-16T04:14:32;0.60;98.50
8226;DHT22;4154;48.810;9.012;2023-03-16T04:16:58;0.60;99.90
8226;DHT22;4154;48.810;9.012;2023-03-16T04:19:24;0.70;98.60
8226;DHT22;4154;48.810;9.012;2023-03-16T04:21:51;0.70;98.50
8226;DHT22;4154;48.810;9.012;2023-03-16T04:26:43;0.70;98.30
8226;DHT22;4154;48.810;9.012;2023-03-16T04:29:14;0.60;98.50
8226;DHT22;4154;48.810;9.012;2023-03-16T04:31:42;0.60;98.60
8226;DHT22;4154;48.810;9.012;2023-03-16T04:34:08;0.60;98.60
8226;DHT22;4154;48.810;9.012;2023-03-16T04:36:36;0.60;98.50
8226;DHT22;4154;48.810;9.012;2023-03-16T04:39:04;0.50;99.90
8226;DHT22;4154;48.810;9.012;2023-03-16T04:43:57;0.50;98.40
8226;DHT22;4154;48.810;9.012;2023-03-16T04:46:24;0.50;98.50
8226;DHT22;4154;48.810;9.012;2023-03-16T04:48:51;0.40;98.70
8226;DHT22;4154;48.810;9.012;2023-03-16T04:51:17;0.40;98.70
8226;DHT22;4154;48.810;9.012;2023-03-16T04:56:09;0.40;98.70
8226;DHT22;4154;48.810;9.012;2023-03-16T04:58:43;0.50;99.20
8226;DHT22;4154;48.810;9.012;2023-03-16T05:01:13;0.50;98.90
8226;DHT22;4154;48.810;9.012;2023-03-16T05:03:39;0.50;99.00
8226;DHT22;4154;48.810;9.012;2023-03-16T05:06:05;0.40;99.00
8226;DHT22;4154;48.810;9.012;2023-03-16T05:08:31;0.40;99.00
8226;DHT22;4154;48.810;9.012;2023-03-16T05:10:57;0.40;99.00
8226;DHT22;4154;48.810;9.012;2023-03-16T05:13:23;0.40;99.00
8226;DHT22;4154;48.810;9.012;2023-03-16T05:15:49;0.50;99.10
8226;DHT22;4154;48.810;9.012;2023-03-16T05:20:48;0.50;98.50
8226;DHT22;4154;48.810;9.012;2023-03-16T05:23:18;0.50;98.70
8226;DHT22;4154;48.810;9.012;2023-03-16T05:25:46;0.60;98.80
8226;DHT22;4154;48.810;9.012;2023-03-16T05:28:12;0.60;98.80
8226;DHT22;4154;48.810;9.012;2023-03-16T05:33:06;0.50;98.40
8226;DHT22;4154;48.810;9.012;2023-03-16T05:35:32;0.60;98.70
8226;DHT22;4154;48.810;9.012;2023-03-16T05:37:58;0.60;98.80
8226;DHT22;4154;48.810;9.012;2023-03-16T05:40:24;0.60;98.70
8226;DHT22;4154;48.810;9.012;2023-03-16T05:42:55;0.70;98.80
8226;DHT22;4154;48.810;9.012;2023-03-16T05:45:23;0.70;98.70
8226;DHT22;4154;48.810;9.012;2023-03-16T05:47:49;0.70;98.70
8226;DHT22;4154;48.810;9.012;2023-03-16T05:50:16;0.70;98.80
8226;DHT22;4154;48.810;9.012;2023-03-16T05:52:43;0.70;98.70
8226;DHT22;4154;48.810;9.012;2023-03-16T05:55:10;0.60;98.70
8226;DHT22;4154;48.810;9.012;2023-03-16T05:57:37;0.60;98.60
8226;DHT22;4154;48.810;9.012;2023-03-16T06:00:07;0.70;98.70
8226;DHT22;4154;48.810;9.012;2023-03-16T06:02:40;0.70;98.60
8226;DHT22;4154;48.810;9.012;2023-03-16T06:05:13;0.60;98.50
8226;DHT22;4154;48.810;9.012;2023-03-16T06:07:40;0.60;98.50
8226;DHT22;4154;48.810;9.012;2023-03-16T06:10:06;0.60;98.60
8226;DHT22;4154;48.810;9.012;2023-03-16T06:12:33;0.60;98.70
8226;DHT22;4154;48.810;9.012;2023-03-16T06:14:59;0.60;98.70
8226;DHT22;4154;48.810;9.012;2023-03-16T06:17:26;0.60;98.80
8226;DHT22;4154;48.810;9.012;2023-03-16T06:19:52;0.60;98.80
8226;DHT22;4154;48.810;9.012;2023-03-16T06:22:18;0.70;98.80
8226;DHT22;4154;48.810;9.012;2023-03-16T06:24:44;0.70;98.90
8226;DHT22;4154;48.810;9.012;2023-03-16T06:27:09;0.70;99.90
8226;DHT22;4154;48.810;9.012;2023-03-16T06:29:35;0.70;99.00
8226;DHT22;4154;48.810;9.012;2023-03-16T06:32:01;0.70;99.00
8226;DHT22;4154;48.810;9.012;2023-03-16T06:34:27;0.70;99.00
8226;DHT22;4154;48.810;9.012;2023-03-16T06:36:52;0.80;99.90
8226;DHT22;4154;48.810;9.012;2023-03-16T06:39:18;0.80;99.20
8226;DHT22;4154;48.810;9.012;2023-03-16T06:46:36;0.90;99.00
8226;DHT22;4154;48.810;9.012;2023-03-16T06:49:03;0.90;99.20
8226;DHT22;4154;48.810;9.012;2023-03-16T06:51:30;0.90;99.20
8226;DHT22;4154;48.810;9.012;2023-03-16T06:53:56;1.00;99.30
8226;DHT22;4154;48.810;9.012;2023-03-16T06:56:22;1.00;99.40
8226;DHT22;4154;48.810;9.012;2023-03-16T06:58:48;1.10;99.40
8226;DHT22;4154;48.810;9.012;2023-03-16T07:01:14;1.20;99.50
8226;DHT22;4154;48.810;9.012;2023-03-16T07:03:39;1.10;99.50
8226;DHT22;4154;48.810;9.012;2023-03-16T07:06:06;1.20;99.50
8226;DHT22;4154;48.810;9.012;2023-03-16T07:08:33;1.20;99.60
8226;DHT22;4154;48.810;9.012;2023-03-16T07:10:58;1.20;99.60
8226;DHT22;4154;48.810;9.012;2023-03-16T07:13:24;1.30;99.70
8226;DHT22;4154;48.810;9.012;2023-03-16T07:15:50;1.30;99.80
8226;DHT22;4154;48.810;9.012;2023-03-16T07:18:17;1.30;99.90
8226;DHT22;4154;48.810;9.012;2023-03-16T07:20:43;1.40;99.90
8226;DHT22;4154;48.810;9.012;2023-03-16T07:23:09;1.50;99.90
8226;DHT22;4154;48.810;9.012;2023-03-16T07:25:35;1.50;99.90
8226;DHT22;4154;48.810;9.012;2023-03-16T07:28:01;1.60;99.90
8226;DHT22;4154;48.810;9.012;2023-03-16T07:30:28;1.60;99.90
8226;DHT22;4154;48.810;9.012;2023-03-16T07:32:54;1.70;99.90
8226;DHT22;4154;48.810;9.012;2023-03-16T07:35:22;1.80;99.90
8226;DHT22;4154;48.810;9.012;2023-03-16T07:37:48;1.90;99.90
8226;DHT22;4154;48.810;9.012;2023-03-16T07:40:15;1.90;99.90
8226;DHT22;4154;48.810;9.012;2023-03-16T07:45:09;2.10;99.90
8226;DHT22;4154;48.810;9.012;2023-03-16T07:47:36;2.20;99.90
8226;DHT22;4154;48.810;9.012;2023-03-16T07:50:02;2.30;99.90
8226;DHT22;4154;48.810;9.012;2023-03-16T07:52:28;2.30;99.90
8226;DHT22;4154;48.810;9.012;2023-03-16T07:54:54;2.40;99.90
8226;DHT22;4154;48.810;9.012;2023-03-16T07:57:20;2.50;99.90
8226;DHT22;4154;48.810;9.012;2023-03-16T07:59:46;2.50;99.90
8226;DHT22;4154;48.810;9.012;2023-03-16T08:02:14;2.60;99.90
8226;DHT22;4154;48.810;9.012;2023-03-16T08:04:42;2.70;99.90
8226;DHT22;4154;48.810;9.012;2023-03-16T08:07:10;2.80;99.90
8226;DHT22;4154;48.810;9.012;2023-03-16T08:09:36;2.80;99.90
8226;DHT22;4154;48.810;9.012;2023-03-16T08:12:03;2.90;99.90
8226;DHT22;4154;48.810;9.012;2023-03-16T08:14:32;2.90;99.90
8226;DHT22;4154;48.810;9.012;2023-03-16T08:17:02;3.00;99.90
8226;DHT22;4154;48.810;9.012;2023-03-16T08:19:29;3.10;99.90
8226;DHT22;4154;48.810;9.012;2023-03-16T08:21:55;3.20;99.90
8226;DHT22;4154;48.810;9.012;2023-03-16T08:24:21;3.20;99.90
8226;DHT22;4154;48.810;9.012;2023-03-16T08:26:47;3.30;99.90
8226;DHT22;4154;48.810;9.012;2023-03-16T08:29:13;3.40;99.90
8226;DHT22;4154;48.810;9.012;2023-03-16T08:31:39;3.40;99.90
8226;DHT22;4154;48.810;9.012;2023-03-16T08:34:07;3.50;99.90
8226;DHT22;4154;48.810;9.012;2023-03-16T08:36:34;3.60;99.90
8226;DHT22;4154;48.810;9.012;2023-03-16T08:39:02;3.70;99.90
8226;DHT22;4154;48.810;9.012;2023-03-16T08:41:30;3.70;99.90
8226;DHT22;4154;48.810;9.012;2023-03-16T08:43:58;3.80;99.90
8226;DHT22;4154;48.810;9.012;2023-03-16T08:46:24;3.90;99.90
8226;DHT22;4154;48.810;9.012;2023-03-16T08:48:50;4.00;99.90
8226;DHT22;4154;48.810;9.012;2023-03-16T08:51:16;4.10;99.90
8226;DHT22;4154;48.810;9.012;2023-03-16T08:53:43;4.10;99.90
8226;DHT22;4154;48.810;9.012;2023-03-16T08:56:11;4.30;99.90
8226;DHT22;4154;48.810;9.012;2023-03-16T08:58:39;4.30;99.90
8226;DHT22;4154;48.810;9.012;2023-03-16T09:01:12;4.40;99.90
8226;DHT22;4154;48.810;9.012;2023-03-16T09:04:00;4.50;99.90
8226;DHT22;4154;48.810;9.012;2023-03-16T09:06:46;4.60;99.80
8226;DHT22;4154;48.810;9.012;2023-03-16T09:09:15;4.70;99.70
8226;DHT22;4154;48.810;9.012;2023-03-16T09:11:42;4.70;99.40
8226;DHT22;4154;48.810;9.012;2023-03-16T09:14:09;4.80;99.40
8226;DHT22;4154;48.810;9.012;2023-03-16T09:16:36;4.80;99.40
8226;DHT22;4154;48.810;9.012;2023-03-16T09:19:02;4.90;99.30
8226;DHT22;4154;48.810;9.012;2023-03-16T09:23:56;5.10;98.80
8226;DHT22;4154;48.810;9.012;2023-03-16T09:26:22;5.20;99.10
8226;DHT22;4154;48.810;9.012;2023-03-16T09:28:47;5.20;98.40
8226;DHT22;4154;48.810;9.012;2023-03-16T09:31:16;5.30;98.50
8226;DHT22;4154;48.810;9.012;2023-03-16T09:33:44;5.40;98.20
8226;DHT22;4154;48.810;9.012;2023-03-16T09:36:11;5.50;98.10
8226;DHT22;4154;48.810;9.012;2023-03-16T09:38:38;5.60;98.30
8226;DHT22;4154;48.810;9.012;2023-03-16T09:44:33;5.80;98.20
8226;DHT22;4154;48.810;9.012;2023-03-16T09:47:26;5.90;98.40
8226;DHT22;4154;48.810;9.012;2023-03-16T09:49:57;6.10;98.30
8226;DHT22;4154;48.810;9.012;2023-03-16T09:52:54;6.20;98.20
8226;DHT22;4154;48.810;9.012;2023-03-16T09:55:34;6.30;97.90
8226;DHT22;4154;48.810;9.012;2023-03-16T09:58:04;6.50;97.90
8226;DHT22;4154;48.810;9.012;2023-03-16T10:00:43;6.40;98.00
8226;DHT22;4154;48.810;9.012;2023-03-16T10:06:21;6.60;97.20
8226;DHT22;4154;48.810;9.012;2023-03-16T10:11:52;6.80;97.10
8226;DHT22;4154;48.810;9.012;2023-03-16T10:20:10;7.10;95.90
8226;DHT22;4154;48.810;9.012;2023-03-16T10:22:44;7.20;95.90
8226;DHT22;4154;48.810;9.012;2023-03-16T10:25:19;7.30;95.90
8226;DHT22;4154;48.810;9.012;2023-03-16T10:27:50;7.30;95.80
8226;DHT22;4154;48.810;9.012;2023-03-16T10:30:25;7.40;95.50
8226;DHT22;4154;48.810;9.012;2023-03-16T10:32:54;7.50;95.60
8226;DHT22;4154;48.810;9.012;2023-03-16T10:41:29;7.70;94.60
8226;DHT22;4154;48.810;9.012;2023-03-16T10:44:02;7.80;94.00
8226;DHT22;4154;48.810;9.012;2023-03-16T10:46:46;7.90;94.40
8226;DHT22;4154;48.810;9.012;2023-03-16T10:49:22;7.90;94.60
8226;DHT22;4154;48.810;9.012;2023-03-16T10:51:54;8.00;94.40
8226;DHT22;4154;48.810;9.012;2023-03-16T10:54:30;8.10;93.80
8226;DHT22;4154;48.810;9.012;2023-03-16T10:56:58;8.10;98.10
8226;DHT22;4154;48.810;9.012;2023-03-16T10:59:31;8.20;93.90
8226;DHT22;4154;48.810;9.012;2023-03-16T11:02:14;8.30;92.60
8226;DHT22;4154;48.810;9.012;2023-03-16T11:04:47;8.40;92.90
8226;DHT22;4154;48.810;9.012;2023-03-16T11:07:17;8.40;92.90
8226;DHT22;4154;48.810;9.012;2023-03-16T11:09:45;8.50;93.00
8226;DHT22;4154;48.810;9.012;2023-03-16T11:12:35;8.60;93.00
8226;DHT22;4154;48.810;9.012;2023-03-16T11:15:03;8.70;93.10
8226;DHT22;4154;48.810;9.012;2023-03-16T11:17:48;8.80;92.70
8226;DHT22;4154;48.810;9.012;2023-03-16T11:20:25;8.80;92.40
8226;DHT22;4154;48.810;9.012;2023-03-16T11:22:53;8.90;92.30
8226;DHT22;4154;48.810;9.012;2023-03-16T11:25:38;8.90;91.80
8226;DHT22;4154;48.810;9.012;2023-03-16T11:28:16;9.00;93.20
8226;DHT22;4154;48.810;9.012;2023-03-16T11:34:32;9.10;92.80
8226;DHT22;4154;48.810;9.012;2023-03-16T11:37:35;9.20;97.00
8226;DHT22;4154;48.810;9.012;2023-03-16T11:40:40;9.30;92.60
8226;DHT22;4154;48.810;9.012;2023-03-16T11:43:47;9.50;92.80
8226;DHT22;4154;48.810;9.012;2023-03-16T11:52:04;9.90;90.30
8226;DHT22;4154;48.810;9.012;2023-03-16T11:54:59;10.00;90.20
8226;DHT22;4154;48.810;9.012;2023-03-16T12:04:20;10.30;88.50
8226;DHT22;4154;48.810;9.012;2023-03-16T12:07:12;10.10;87.90
8226;DHT22;4154;48.810;9.012;2023-03-16T12:10:07;10.10;88.50
8226;DHT22;4154;48.810;9.012;2023-03-16T12:15:18;10.40;90.00
8226;DHT22;4154;48.810;9.012;2023-03-16T12:17:52;10.40;90.10
8226;DHT22;4154;48.810;9.012;2023-03-16T12:20:29;10.50;89.80
8226;DHT22;4154;48.810;9.012;2023-03-16T12:23:11;10.50;89.40
8226;DHT22;4154;48.810;9.012;2023-03-16T12:25:43;10.70;90.10
8226;DHT22;4154;48.810;9.012;2023-03-16T12:28:23;10.80;88.80
8226;DHT22;4154;48.810;9.012;2023-03-16T12:31:06;10.90;88.80
8226;DHT22;4154;48.810;9.012;2023-03-16T12:36:48;11.10;88.10
8226;DHT22;4154;48.810;9.012;2023-03-16T12:42:34;11.10;87.00
8226;DHT22;4154;48.810;9.012;2023-03-16T12:45:15;11.20;87.20
8226;DHT22;4154;48.810;9.012;2023-03-16T12:50:49;11.50;88.00
8226;DHT22;4154;48.810;9.012;2023-03-16T12:53:40;11.60;85.70
8226;DHT22;4154;48.810;9.012;2023-03-16T12:56:16;11.70;84.90
8226;DHT22;4154;48.810;9.012;2023-03-16T12:58:48;11.80;83.40
8226;DHT22;4154;48.810;9.012;2023-03-16T13:01:23;11.80;84.90
8226;DHT22;4154;48.810;9.012;2023-03-16T13:04:05;11.80;84.30
8226;DHT22;4154;48.810;9.012;2023-03-16T13:06:34;11.80;83.60
8226;DHT22;4154;48.810;9.012;2023-03-16T13:09:02;11.80;84.40
8226;DHT22;4154;48.810;9.012;2023-03-16T13:11:47;11.90;81.00
8226;DHT22;4154;48.810;9.012;2023-03-16T13:17:29;12.00;90.90
8226;DHT22;4154;48.810;9.012;2023-03-16T13:20:06;12.10;83.40
8226;DHT22;4154;48.810;9.012;2023-03-16T13:23:06;12.10;82.10
8226;DHT22;4154;48.810;9.012;2023-03-16T13:25:57;12.10;82.30
8226;DHT22;4154;48.810;9.012;2023-03-16T13:28:29;12.10;81.50
8226;DHT22;4154;48.810;9.012;2023-03-16T13:30:57;12.10;81.50
8226;DHT22;4154;48.810;9.012;2023-03-16T13:33:27;12.00;81.40
8226;DHT22;4154;48.810;9.012;2023-03-16T13:35:57;12.00;82.10
8226;DHT22;4154;48.810;9.012;2023-03-16T13:38:25;12.10;80.80
8226;DHT22;4154;48.810;9.012;2023-03-16T13:41:04;12.20;81.60
8226;DHT22;4154;48.810;9.012;2023-03-16T13:43:38;12.20;82.10
8226;DHT22;4154;48.810;9.012;2023-03-16T13:46:20;12.30;82.60
8226;DHT22;4154;48.810;9.012;2023-03-16T13:51:19;12.40;80.80
8226;DHT22;4154;48.810;9.012;2023-03-16T13:53:48;12.60;81.40
8226;DHT22;4154;48.810;9.012;2023-03-16T13:56:17;12.70;80.80
8226;DHT22;4154;48.810;9.012;2023-03-16T13:58:50;12.80;80.30
8226;DHT22;4154;48.810;9.012;2023-03-16T14:01:24;13.00;77.50
8226;DHT22;4154;48.810;9.012;2023-03-16T14:03:55;13.00;76.80
8226;DHT22;4154;48.810;9.012;2023-03-16T14:06:25;13.10;78.50
8226;DHT22;4154;48.810;9.012;2023-03-16T14:08:57;13.10;78.50
8226;DHT22;4154;48.810;9.012;2023-03-16T14:11:26;13.20;77.30
8226;DHT22;4154;48.810;9.012;2023-03-16T14:13:57;13.20;76.60
8226;DHT22;4154;48.810;9.012;2023-03-16T14:16:26;13.20;79.00
8226;DHT22;4154;48.810;9.012;2023-03-16T14:19:01;13.30;78.20
8226;DHT22;4154;48.810;9.012;2023-03-16T14:21:33;13.30;75.70
8226;DHT22;4154;48.810;9.012;2023-03-16T14:24:01;13.30;73.70
8226;DHT22;4154;48.810;9.012;2023-03-16T14:26:41;13.30;74.70
8226;DHT22;4154;48.810;9.012;2023-03-16T14:29:24;13.30;74.80
8226;DHT22;4154;48.810;9.012;2023-03-16T14:31:52;13.20;73.90
8226;DHT22;4154;48.810;9.012;2023-03-16T14:34:20;13.20;74.60
8226;DHT22;4154;48.810;9.012;2023-03-16T14:39:35;13.20;72.90
8226;DHT22;4154;48.810;9.012;2023-03-16T14:42:03;13.30;73.80
8226;DHT22;4154;48.810;9.012;2023-03-16T14:44:33;13.30;73.20
8226;DHT22;4154;48.810;9.012;2023-03-16T14:47:03;13.40;81.70
8226;DHT22;4154;48.810;9.012;2023-03-16T14:49:36;13.30;72.90
8226;DHT22;4154;48.810;9.012;2023-03-16T14:52:20;13.30;73.00
8226;DHT22;4154;48.810;9.012;2023-03-16T14:54:47;13.20;73.50
8226;DHT22;4154;48.810;9.012;2023-03-16T14:57:15;13.20;73.60
8226;DHT22;4154;48.810;9.012;2023-03-16T14:59:41;13.20;74.50
8226;DHT22;4154;48.810;9.012;2023-03-16T15:04:53;13.10;74.60
8226;DHT22;4154;48.810;9.012;2023-03-16T15:07:37;13.00;75.20
8226;DHT22;4154;48.810;9.012;2023-03-16T15:12:40;13.10;75.60
8226;DHT22;4154;48.810;9.012;2023-03-16T15:15:17;13.10;74.80
8226;DHT22;4154;48.810;9.012;2023-03-16T15:17:47;13.20;73.00
8226;DHT22;4154;48.810;9.012;2023-03-16T15:20:20;13.30;71.30
8226;DHT22;4154;48.810;9.012;2023-03-16T15:22:51;13.30;72.20
8226;DHT22;4154;48.810;9.012;2023-03-16T15:30:49;13.30;72.20
8226;DHT22;4154;48.810;9.012;2023-03-16T15:33:17;13.20;73.10
8226;DHT22;4154;48.810;9.012;2023-03-16T15:35:45;13.20;72.20
8226;DHT22;4154;48.810;9.012;2023-03-16T15:38:21;13.20;72.40
8226;DHT22;4154;48.810;9.012;2023-03-16T15:40:56;13.10;72.90
8226;DHT22;4154;48.810;9.012;2023-03-16T15:43:27;13.10;72.30
8226;DHT22;4154;48.810;9.012;2023-03-16T15:45:55;13.00;72.70
8226;DHT22;4154;48.810;9.012;2023-03-16T15:48:23;12.90;72.30
8226;DHT22;4154;48.810;9.012;2023-03-16T15:50:58;12.90;72.40
8226;DHT22;4154;48.810;9.012;2023-03-16T15:56:11;12.80;73.50
8226;DHT22;4154;48.810;9.012;2023-03-16T15:58:42;12.60;83.40
8226;DHT22;4154;48.810;9.012;2023-03-16T16:01:25;12.70;74.00
8226;DHT22;4154;48.810;9.012;2023-03-16T16:04:00;12.60;74.50
8226;DHT22;4154;48.810;9.012;2023-03-16T16:06:26;12.50;74.30
8226;DHT22;4154;48.810;9.012;2023-03-16T16:08:53;12.50;73.10
8226;DHT22;4154;48.810;9.012;2023-03-16T16:11:23;12.50;83.10
8226;DHT22;4154;48.810;9.012;2023-03-16T16:13:53;12.40;74.10
8226;DHT22;4154;48.810;9.012;2023-03-16T16:16:20;12.40;74.40
8226;DHT22;4154;48.810;9.012;2023-03-16T16:18:46;12.30;74.20
8226;DHT22;4154;48.810;9.012;2023-03-16T16:21:20;12.30;74.20
8226;DHT22;4154;48.810;9.012;2023-03-16T16:23:49;12.20;73.90
8226;DHT22;4154;48.810;9.012;2023-03-16T16:28:47;12.10;75.40
8226;DHT22;4154;48.810;9.012;2023-03-16T16:31:13;12.10;75.60
8226;DHT22;4154;48.810;9.012;2023-03-16T16:33:39;12.10;74.30
8226;DHT22;4154;48.810;9.012;2023-03-16T16:36:09;12.00;74.60
8226;DHT22;4154;48.810;9.012;2023-03-16T16:38:39;12.00;75.20
8226;DHT22;4154;48.810;9.012;2023-03-16T16:41:08;11.90;75.30
8226;DHT22;4154;48.810;9.012;2023-03-16T16:43:40;11.90;76.20
8226;DHT22;4154;48.810;9.012;2023-03-16T16:46:17;11.80;74.90
8226;DHT22;4154;48.810;9.012;2023-03-16T16:48:46;11.80;75.70
8226;DHT22;4154;48.810;9.012;2023-03-16T16:51:18;11.80;75.60
8226;DHT22;4154;48.810;9.012;2023-03-16T16:53:49;11.70;75.30
8226;DHT22;4154;48.810;9.012;2023-03-16T16:56:21;11.70;75.40
8226;DHT22;4154;48.810;9.012;2023-03-16T16:58:52;11.60;75.50
8226;DHT22;4154;48.810;9.012;2023-03-16T17:01:27;11.60;75.40
8226;DHT22;4154;48.810;9.012;2023-03-16T17:03:57;11.50;76.00
8226;DHT22;4154;48.810;9.012;2023-03-16T17:06:24;11.50;75.60
8226;DHT22;4154;48.810;9.012;2023-03-16T17:08:50;11.40;74.70
8226;DHT22;4154;48.810;9.012;2023-03-16T17:11:25;11.40;76.00
8226;DHT22;4154;48.810;9.012;2023-03-16T17:13:55;11.30;75.90
8226;DHT22;4154;48.810;9.012;2023-03-16T17:16:24;11.30;75.30
8226;DHT22;4154;48.810;9.012;2023-03-16T17:18:53;11.20;75.40
8226;DHT22;4154;48.810;9.012;2023-03-16T17:21:22;11.10;75.70
8226;DHT22;4154;48.810;9.012;2023-03-16T17:23:51;11.10;76.40
8226;DHT22;4154;48.810;9.012;2023-03-16T17:26:36;11.00;77.10
8226;DHT22;4154;48.810;9.012;2023-03-16T17:29:15;10.90;77.00
8226;DHT22;4154;48.810;9.012;2023-03-16T17:31:45;10.90;77.20
8226;DHT22;4154;48.810;9.012;2023-03-16T17:36:44;10.80;77.20
8226;DHT22;4154;48.810;9.012;2023-03-16T17:39:23;10.70;77.00
8226;DHT22;4154;48.810;9.012;2023-03-16T17:41:55;10.70;77.90
8226;DHT22;4154;48.810;9.012;2023-03-16T17:44:24;10.60;88.60
8226;DHT22;4154;48.810;9.012;2023-03-16T17:46:53;10.80;87.80
8226;DHT22;4154;48.810;9.012;2023-03-16T17:49:19;10.60;77.80
8226;DHT22;4154;48.810;9.012;2023-03-16T17:51:46;10.60;77.80
8226;DHT22;4154;48.810;9.012;2023-03-16T17:54:12;10.50;78.00
8226;DHT22;4154;48.810;9.012;2023-03-16T17:56:38;10.50;79.10
8226;DHT22;4154;48.810;9.012;2023-03-16T17:59:10;10.50;77.90
8226;DHT22;4154;48.810;9.012;2023-03-16T18:01:41;10.50;78.50
8226;DHT22;4154;48.810;9.012;2023-03-16T18:04:19;10.50;90.00
8226;DHT22;4154;48.810;9.012;2023-03-16T18:06:47;10.40;79.90
8226;DHT22;4154;48.810;9.012;2023-03-16T18:09:14;10.40;79.90
8226;DHT22;4154;48.810;9.012;2023-03-16T18:11:43;10.30;80.60
8226;DHT22;4154;48.810;9.012;2023-03-16T18:14:33;10.30;81.00
8226;DHT22;4154;48.810;9.012;2023-03-16T18:17:06;10.20;80.80
8226;DHT22;4154;48.810;9.012;2023-03-16T18:19:37;10.20;81.20
8226;DHT22;4154;48.810;9.012;2023-03-16T18:22:10;10.20;81.20
8226;DHT22;4154;48.810;9.012;2023-03-16T18:24:44;10.20;80.90
8226;DHT22;4154;48.810;9.012;2023-03-16T18:29:37;10.10;81.50
8226;DHT22;4154;48.810;9.012;2023-03-16T18:34:32;10.00;81.90
8226;DHT22;4154;48.810;9.012;2023-03-16T18:39:31;10.00;82.10
8226;DHT22;4154;48.810;9.012;2023-03-16T18:41:56;9.90;82.90
8226;DHT22;4154;48.810;9.012;2023-03-16T18:44:24;9.90;82.90
8226;DHT22;4154;48.810;9.012;2023-03-16T18:46:53;9.90;83.30
8226;DHT22;4154;48.810;9.012;2023-03-16T18:49:34;9.80;83.50
8226;DHT22;4154;48.810;9.012;2023-03-16T18:52:01;9.80;83.60
8226;DHT22;4154;48.810;9.012;2023-03-16T18:54:30;9.80;83.70
8226;DHT22;4154;48.810;9.012;2023-03-16T18:56:59;9.90;91.60
8226;DHT22;4154;48.810;9.012;2023-03-16T18:59:28;9.70;83.60
8226;DHT22;4154;48.810;9.012;2023-03-16T19:01:56;9.70;84.00